Dades meteomassalio
Diari Summary for Gener 5, 2017 Units:  Metric    English   Both
« Previous Day
Next Day »
Diari Semanal Mensual Anual Personalitzat
  Maxima: Minima: Mijana:
Temperatura: -17.8 °C -16.2 °C -13.2 °C
Rosada: -17.8 °C -22.4 °C -19.1 °C
Humitat: Humidity % 25 % 50 %
Velocitat del vent: 0 km/h 0 km/h 0 km/h
Racha vent: 0 km/h - -
Vent:- - North
Pressio: 0 hPa 34659.1 hPa -
Pluja: 0 mm    
Historical Graphs
 
 
Tabular Data for Gener 5, 2017
Time Temperature Dew Point Pressure Wind Wind Speed Wind Gust Humidity Rainfall Rate (Hourly) solar Conditions
-17.8 °C -17.8 °C 0 hPa Calm     Humidity % 0 mm SolarRadiationWatts/m^2 W/m2 Conditions
00:04 -12.9 °C -18.4 °C 34716.7 hPa Calm     50 % 0 mm 0.0 W/m2 RA
00:09 -12.9 °C -18.3 °C 34716.7 hPa Calm     51 % 0 mm 0.0 W/m2 CLR
00:14 -13 °C -17.8 °C 34716.7 hPa Calm     55 % 0 mm 0.0 W/m2 CLR
00:19 -13.2 °C -17.7 °C 34716.7 hPa Calm     57 % 0 mm 0.0 W/m2 CLR
00:24 -13.3 °C -17.6 °C 34716.7 hPa Calm     59 % 0 mm 0.0 W/m2 CLR
00:29 -13.4 °C -17.4 °C 34716.7 hPa Calm     60 % 0 mm 0.0 W/m2 CLR
00:34 -13.5 °C -17.3 °C 34716.7 hPa Calm     62 % 0 mm 0.0 W/m2 CLR
00:44 -13.7 °C -17.1 °C 34716.7 hPa Calm     65 % 0 mm 0.0 W/m2 CLR
00:49 -13.8 °C -17.1 °C 34716.7 hPa Calm     66 % 0 mm 0.0 W/m2 CLR
00:54 -13.8 °C -17.1 °C 34716.7 hPa Calm     67 % 0 mm 0.0 W/m2 CLR
00:59 -13.8 °C -17.3 °C 34703.1 hPa Calm     65 % 0 mm 0.0 W/m2 CLR
01:04 -13.7 °C -17.3 °C 34703.1 hPa Calm     63 % 0 mm 0.0 W/m2 CLR
01:09 -13.3 °C -17.3 °C 34703.1 hPa Calm     60 % 0 mm 0.0 W/m2 CLR
01:14 -13.1 °C -17.3 °C 34703.1 hPa Calm     59 % 0 mm 0.0 W/m2 CLR
01:19 -13.1 °C -17.1 °C 34703.1 hPa Calm     60 % 0 mm 0.0 W/m2 CLR
01:24 -13 °C -17.2 °C 34703.1 hPa Calm     59 % 0 mm 0.0 W/m2 CLR
01:29 -12.9 °C -17 °C 34716.7 hPa Calm     60 % 0 mm 0.0 W/m2 CLR
01:34 -12.9 °C -17.1 °C 34716.7 hPa Calm     59 % 0 mm 0.0 W/m2 CLR
01:39 -12.9 °C -16.9 °C 34703.1 hPa Calm     60 % 0 mm 0.0 W/m2 CLR
01:44 -12.9 °C -16.7 °C 34703.1 hPa Calm     62 % 0 mm 0.0 W/m2 CLR
01:49 -12.8 °C -16.7 °C 34703.1 hPa Calm     62 % 0 mm 0.0 W/m2 CLR
01:54 -12.9 °C -16.8 °C 34703.1 hPa Calm     61 % 0 mm 0.0 W/m2 CLR
01:59 -12.9 °C -16.3 °C 34703.1 hPa Calm     65 % 0 mm 0.0 W/m2 CLR
02:04 -12.9 °C -16.5 °C 34703.1 hPa Calm     64 % 0 mm 0.0 W/m2 CLR
02:09 -12.9 °C -16.8 °C 34703.1 hPa Calm     61 % 0 mm 0.0 W/m2 CLR
02:14 -12.8 °C -16.6 °C 34703.1 hPa Calm     63 % 0 mm 0.0 W/m2 CLR
02:19 -12.9 °C -16.4 °C 34703.1 hPa Calm     64 % 0 mm 0.0 W/m2 CLR
02:29 -12.9 °C -16.4 °C 34703.1 hPa Calm     65 % 0 mm 0.0 W/m2 CLR
02:34 -13 °C -16.2 °C 34703.1 hPa Calm     67 % 0 mm 0.0 W/m2 CLR
02:39 -13.1 °C -16.3 °C 34703.1 hPa Calm     67 % 0 mm 0.0 W/m2 CLR
02:44 -13.1 °C -16.3 °C 34703.1 hPa Calm     67 % 0 mm 0.0 W/m2 CLR
02:49 -13.1 °C -16.4 °C 34703.1 hPa Calm     66 % 0 mm 0.0 W/m2 CLR
02:54 -13.1 °C -16.4 °C 34703.1 hPa Calm     66 % 0 mm 0.0 W/m2 CLR
02:59 -13 °C -16.5 °C 34703.1 hPa Calm     65 % 0 mm 0.0 W/m2 CLR
03:04 -13 °C -16.6 °C 34703.1 hPa Calm     64 % 0 mm 0.0 W/m2 CLR
03:09 -13 °C -16.6 °C 34693 hPa Calm     64 % 0 mm 0.0 W/m2 CLR
03:14 -13 °C -16.4 °C 34693 hPa Calm     65 % 0 mm 0.0 W/m2 CLR
03:19 -13.1 °C -16.6 °C 34693 hPa Calm     65 % 0 mm 0.0 W/m2 CLR
03:24 -13.1 °C -16.4 °C 34693 hPa Calm     66 % 0 mm 0.0 W/m2 CLR
03:29 -13.2 °C -16.6 °C 34693 hPa Calm     65 % 0 mm 0.0 W/m2 CLR
03:34 -13.1 °C -16.8 °C 34703.1 hPa Calm     63 % 0 mm 0.0 W/m2 CLR
03:40 -13.2 °C -16.7 °C 34703.1 hPa Calm     64 % 0 mm 0.0 W/m2 CLR
03:45 -13.2 °C -16.7 °C 34703.1 hPa Calm     64 % 0 mm 0.0 W/m2 CLR
03:50 -13.2 °C -16.8 °C 34703.1 hPa Calm     64 % 0 mm 0.0 W/m2 CLR
03:55 -13.2 °C -16.8 °C 34703.1 hPa Calm     64 % 0 mm 0.0 W/m2 CLR
04:00 -13.2 °C -16.6 °C 34693 hPa Calm     65 % 0 mm 0.0 W/m2 CLR
04:05 -13.2 °C -16.6 °C 34693 hPa Calm     65 % 0 mm 0.0 W/m2 CLR
04:10 -13.2 °C -16.6 °C 34693 hPa Calm     66 % 0 mm 0.0 W/m2 CLR
04:15 -13.2 °C -16.7 °C 34693 hPa Calm     65 % 0 mm 0.0 W/m2 CLR
04:20 -13.2 °C -16.9 °C 34682.8 hPa Calm     63 % 0 mm 0.0 W/m2 CLR
04:25 -13.2 °C -17 °C 34693 hPa Calm     62 % 0 mm 0.0 W/m2 CLR
04:30 -13.1 °C -16.8 °C 34693 hPa Calm     63 % 0 mm 0.0 W/m2 CLR
04:35 -13.1 °C -16.6 °C 34682.8 hPa Calm     64 % 0 mm 0.0 W/m2 CLR
04:40 -13.1 °C -16.6 °C 34693 hPa Calm     65 % 0 mm 0.0 W/m2 CLR
04:45 -13.2 °C -16.5 °C 34682.8 hPa Calm     66 % 0 mm 0.0 W/m2 CLR
04:50 -13.3 °C -16.5 °C 34682.8 hPa Calm     67 % 0 mm 0.0 W/m2 CLR
04:55 -13.4 °C -16.4 °C 34682.8 hPa Calm     68 % 0 mm 0.0 W/m2 CLR
05:00 -13.4 °C -16.4 °C 34682.8 hPa Calm     68 % 0 mm 0.0 W/m2 CLR
05:05 -13.4 °C -16.6 °C 34682.8 hPa Calm     67 % 0 mm 0.0 W/m2 CLR
05:10 -13.4 °C -16.6 °C 34682.8 hPa Calm     67 % 0 mm 0.0 W/m2 CLR
05:15 -13.4 °C -16.6 °C 34682.8 hPa Calm     67 % 0 mm 0.0 W/m2 CLR
05:20 -13.4 °C -17 °C 34682.8 hPa Calm     64 % 0 mm 0.0 W/m2 CLR
05:25 -13.4 °C -16.7 °C 34682.8 hPa Calm     66 % 0 mm 0.0 W/m2 CLR
05:30 -13.4 °C -16.6 °C 34682.8 hPa Calm     67 % 0 mm 0.0 W/m2 CLR
05:35 -13.5 °C -16.6 °C 34682.8 hPa Calm     68 % 0 mm 0.0 W/m2 CLR
05:40 -13.5 °C -16.7 °C 34682.8 hPa Calm     67 % 0 mm 0.0 W/m2 CLR
05:45 -13.5 °C -16.8 °C 34682.8 hPa Calm     66 % 0 mm 0.0 W/m2 CLR
05:50 -13.5 °C -16.8 °C 34682.8 hPa Calm     66 % 0 mm 0.0 W/m2 CLR
05:55 -13.5 °C -16.9 °C 34669.3 hPa Calm     65 % 0 mm 0.0 W/m2 CLR
06:00 -13.4 °C -17 °C 34682.8 hPa Calm     64 % 0 mm 0.0 W/m2 CLR
06:05 -13.4 °C -16.8 °C 34682.8 hPa Calm     66 % 0 mm 0.0 W/m2 CLR
06:10 -13.4 °C -17 °C 34682.8 hPa Calm     64 % 0 mm 0.0 W/m2 CLR
06:15 -13.4 °C -16.9 °C 34682.8 hPa Calm     65 % 0 mm 0.0 W/m2 CLR
06:20 -13.5 °C -16.8 °C 34682.8 hPa Calm     66 % 0 mm 0.0 W/m2 CLR
06:25 -13.6 °C -16.8 °C 34682.8 hPa Calm     67 % 0 mm 0.0 W/m2 CLR
06:30 -13.7 °C -16.8 °C 34682.8 hPa Calm     67 % 0 mm 0.0 W/m2 CLR
06:35 -13.7 °C -17.1 °C 34693 hPa Calm     65 % 0 mm 0.0 W/m2 CLR
06:40 -13.7 °C -17.3 °C 34693 hPa Calm     64 % 0 mm 0.0 W/m2 CLR
06:45 -13.8 °C -17.2 °C 34693 hPa Calm     65 % 0 mm 0.0 W/m2 CLR
06:50 -13.9 °C -17.1 °C 34693 hPa Calm     67 % 0 mm 0.0 W/m2 CLR
06:55 -14.1 °C -17.1 °C 34693 hPa Calm     68 % 0 mm 0.0 W/m2 CLR
07:00 -14.3 °C -17.2 °C 34693 hPa Calm     69 % 0 mm 0.0 W/m2 CLR
07:05 -14.3 °C -17.2 °C 34693 hPa Calm     70 % 0 mm 0.0 W/m2 CLR
07:10 -14.5 °C -17.3 °C 34693 hPa Calm     70 % 0 mm 0.0 W/m2 CLR
07:15 -14.6 °C -17.4 °C 34693 hPa Calm     69 % 0 mm 0.0 W/m2 CLR
07:25 -14.6 °C -17.6 °C 34693 hPa Calm     68 % 0 mm 0.0 W/m2 CLR
07:30 -14.6 °C -17.7 °C 34693 hPa Calm     67 % 0 mm 0.0 W/m2 CLR
07:35 -14.6 °C -17.9 °C 34693 hPa Calm     66 % 0 mm 0.0 W/m2 CLR
07:40 -14.6 °C -18.1 °C 34693 hPa Calm     64 % 0 mm 0.0 W/m2 CLR
07:45 -14.6 °C -18.2 °C 34693 hPa Calm     63 % 0 mm 0.0 W/m2 CLR
07:50 -14.5 °C -18.4 °C 34693 hPa Calm     61 % 0 mm 0.0 W/m2 CLR
07:55 -14.5 °C -18.6 °C 34693 hPa Calm     59 % 0 mm 0.0 W/m2 CLR
08:00 -14.4 °C -18.7 °C 34693 hPa Calm     58 % 0 mm 0.0 W/m2 CLR
08:05 -14.4 °C -18.8 °C 34693 hPa Calm     57 % 0 mm 0.0 W/m2 CLR
08:10 -14.5 °C -19 °C 34693 hPa Calm     56 % 0 mm 0.0 W/m2 CLR
08:16 -14.5 °C -19 °C 34693 hPa Calm     56 % 0 mm 0.0 W/m2 CLR
08:21 -14.6 °C -19.4 °C 34693 hPa Calm     53 % 0 mm 0.0 W/m2 CLR
08:26 -14.5 °C -19.6 °C 34693 hPa Calm     52 % 0 mm 5.0 W/m2 BKN
08:31 -14.5 °C -19.7 °C 34703.1 hPa Calm     51 % 0 mm 7.0 W/m2 BKN
08:36 -14.5 °C -19.6 °C 34703.1 hPa Calm     52 % 0 mm 9.0 W/m2 BKN
08:41 -14.6 °C -19.8 °C 34703.1 hPa Calm     51 % 0 mm 11.0 W/m2 BKN
08:46 -14.4 °C -20.1 °C 34703.1 hPa Calm     48 % 0 mm 12.0 W/m2 BKN
08:51 -14.3 °C -20.1 °C 34703.1 hPa Calm     47 % 0 mm 14.0 W/m2 BKN
08:56 -14.2 °C -20.2 °C 34703.1 hPa Calm     46 % 0 mm 18.0 W/m2 BKN
09:01 -14.1 °C -20.4 °C 34703.1 hPa Calm     44 % 0 mm 21.0 W/m2 BKN
09:06 -13.9 °C -21 °C 34703.1 hPa Calm     40 % 0 mm 26.0 W/m2 BKN
09:11 -13.7 °C -21 °C 34703.1 hPa Calm     39 % 0 mm 40.0 W/m2 BKN
09:16 -13.6 °C -21.2 °C 34716.7 hPa Calm     37 % 0 mm 53.0 W/m2 BKN
09:21 -13.4 °C -21.6 °C 34703.1 hPa Calm     35 % 0 mm 44.0 W/m2 BKN
09:26 -13.3 °C -21.2 °C 34703.1 hPa Calm     36 % 0 mm 67.0 W/m2 BKN
09:31 -13.2 °C -21.7 °C 34703.1 hPa Calm     33 % 0 mm 83.0 W/m2 BKN
09:36 -13.2 °C -21.5 °C 34716.7 hPa Calm     34 % 0 mm 83.0 W/m2 BKN
09:41 -13.2 °C -21.7 °C 34716.7 hPa Calm     33 % 0 mm 116.0 W/m2 BKN
09:46 -13.2 °C -21.9 °C 34716.7 hPa Calm     32 % 0 mm 130.0 W/m2 BKN
09:51 -13.1 °C -21.6 °C 34716.7 hPa Calm     33 % 0 mm 111.0 W/m2 BKN
09:56 -13 °C -21.8 °C 34716.7 hPa Calm     32 % 0 mm 160.0 W/m2 BKN
10:01 -12.9 °C -21.7 °C 34716.7 hPa Calm     32 % 0 mm 174.0 W/m2 SCT
10:06 -12.9 °C -22.2 °C 34726.8 hPa Calm     30 % 0 mm 141.0 W/m2 SCT
10:11 -12.9 °C -22.4 °C 34726.8 hPa Calm     29 % 0 mm 193.0 W/m2 BKN
10:16 -12.8 °C -22.1 °C 34716.7 hPa Calm     30 % 0 mm 111.0 W/m2 SCT
10:21 -12.7 °C -21.6 °C 34716.7 hPa Calm     32 % 0 mm 229.0 W/m2 SCT
10:26 -12.7 °C -21.8 °C 34716.7 hPa Calm     31 % 0 mm 244.0 W/m2 SCT
10:31 -12.7 °C -21.9 °C 34726.8 hPa Calm     30 % 0 mm 258.0 W/m2 SCT
10:36 -12.7 °C -21.5 °C 34716.7 hPa Calm     32 % 0 mm 269.0 W/m2 SCT
10:41 -12.6 °C -21.6 °C 34716.7 hPa Calm     31 % 0 mm 279.0 W/m2 SCT
10:46 -12.6 °C -21.4 °C 34716.7 hPa Calm     32 % 0 mm 290.0 W/m2 SCT
10:51 -12.5 °C -21.1 °C 34726.8 hPa Calm     33 % 0 mm 301.0 W/m2 FEW
10:56 -12.4 °C -20.8 °C 34726.8 hPa Calm     34 % 0 mm 311.0 W/m2 FEW
11:01 -12.3 °C -21 °C 34726.8 hPa Calm     33 % 0 mm 320.0 W/m2 FEW
11:06 -12.3 °C -21.6 °C 34726.8 hPa Calm     30 % 0 mm 329.0 W/m2 FEW
11:16 -12.3 °C -21.8 °C 34726.8 hPa Calm     29 % 0 mm 346.0 W/m2 FEW
11:21 -12.2 °C -21.6 °C 34726.8 hPa Calm     30 % 0 mm 353.0 W/m2 FEW
11:26 -12.2 °C -21.8 °C 34726.8 hPa Calm     29 % 0 mm 360.0 W/m2 FEW
11:31 -12.2 °C -21.8 °C 34726.8 hPa Calm     29 % 0 mm 369.0 W/m2 FEW
11:36 -12.1 °C -21.9 °C 34726.8 hPa Calm     28 % 0 mm 376.0 W/m2 FEW
11:42 -12.1 °C -21.6 °C 34726.8 hPa Calm     29 % 0 mm 383.0 W/m2 FEW
11:47 -12 °C -21.8 °C 34726.8 hPa Calm     28 % 0 mm 390.0 W/m2 FEW
11:52 -11.9 °C -21.3 °C 34726.8 hPa Calm     30 % 0 mm 396.0 W/m2 FEW
11:57 -11.8 °C -21.2 °C 34716.7 hPa Calm     30 % 0 mm 401.0 W/m2 CLR
12:02 -11.8 °C -21.2 °C 34716.7 hPa Calm     30 % 0 mm 408.0 W/m2 CLR
12:07 -11.8 °C -21.9 °C 34716.7 hPa Calm     27 % 0 mm 411.0 W/m2 CLR
12:12 -11.8 °C -21.7 °C 34716.7 hPa Calm     28 % 0 mm 417.0 W/m2 CLR
12:17 -11.8 °C -21.4 °C 34716.7 hPa Calm     29 % 0 mm 420.0 W/m2 CLR
12:22 -11.7 °C -21.9 °C 34716.7 hPa Calm     27 % 0 mm 425.0 W/m2 CLR
12:27 -11.7 °C -21.6 °C 34716.7 hPa Calm     28 % 0 mm 429.0 W/m2 CLR
12:32 -11.6 °C -21.8 °C 34703.1 hPa Calm     27 % 0 mm 432.0 W/m2 CLR
12:37 -11.6 °C -22 °C 34716.7 hPa Calm     26 % 0 mm 434.0 W/m2 CLR
12:42 -11.6 °C -22.3 °C 34716.7 hPa Calm     25 % 0 mm 436.0 W/m2 CLR
12:47 -11.7 °C -22.1 °C 34716.7 hPa Calm     26 % 0 mm 438.0 W/m2 CLR
12:52 -11.6 °C -21.8 °C 34703.1 hPa Calm     27 % 0 mm 439.0 W/m2 CLR
12:57 -11.6 °C -22.1 °C 34703.1 hPa Calm     26 % 0 mm 441.0 W/m2 CLR
13:02 -11.6 °C -21.7 °C 34703.1 hPa Calm     27 % 0 mm 441.0 W/m2 CLR
13:07 -11.6 °C -22.3 °C 34693 hPa Calm     25 % 0 mm 441.0 W/m2 CLR
13:12 -11.6 °C -22.1 °C 34693 hPa Calm     26 % 0 mm 441.0 W/m2 CLR
13:17 -11.6 °C -21.8 °C 34693 hPa Calm     27 % 0 mm 439.0 W/m2 CLR
13:22 -11.5 °C -21.7 °C 34682.8 hPa Calm     27 % 0 mm 439.0 W/m2 CLR
13:27 -11.4 °C -21.2 °C 34682.8 hPa Calm     29 % 0 mm 439.0 W/m2 CLR
13:32 -11.4 °C -21.9 °C 34682.8 hPa Calm     26 % 0 mm 438.0 W/m2 CLR
13:37 -11.4 °C -21.6 °C 34682.8 hPa Calm     27 % 0 mm 434.0 W/m2 CLR
13:42 -11.4 °C -21.6 °C 34682.8 hPa Calm     27 % 0 mm 432.0 W/m2 CLR
13:47 -11.3 °C -21.3 °C 34682.8 hPa Calm     28 % 0 mm 425.0 W/m2 CLR
13:52 -11.3 °C -21.3 °C 34669.3 hPa Calm     28 % 0 mm 425.0 W/m2 CLR
13:57 -11.3 °C -21.2 °C 34682.8 hPa Calm     28 % 0 mm 424.0 W/m2 CLR
14:02 -11.2 °C -21.2 °C 34682.8 hPa Calm     28 % 0 mm 420.0 W/m2 CLR
14:07 -11.2 °C -21.7 °C 34669.3 hPa Calm     26 % 0 mm 415.0 W/m2 CLR
14:12 -11.2 °C -20.9 °C 34669.3 hPa Calm     29 % 0 mm 411.0 W/m2 CLR
14:17 -11.2 °C -21.4 °C 34669.3 hPa Calm     27 % 0 mm 404.0 W/m2 CLR
14:22 -11.1 °C -21.3 °C 34669.3 hPa Calm     27 % 0 mm 401.0 W/m2 CLR
14:27 -11.1 °C -21.1 °C 34669.3 hPa Calm     28 % 0 mm 394.0 W/m2 CLR
14:32 -11.2 °C -21.2 °C 34669.3 hPa Calm     28 % 0 mm 388.0 W/m2 CLR
14:37 -11.2 °C -20.9 °C 34669.3 hPa Calm     29 % 0 mm 381.0 W/m2 CLR
14:42 -11.2 °C -20.9 °C 34669.3 hPa Calm     29 % 0 mm 374.0 W/m2 CLR
14:47 -11.2 °C -21.2 °C 34669.3 hPa Calm     28 % 0 mm 367.0 W/m2 CLR
14:52 -11.2 °C -20.9 °C 34669.3 hPa Calm     29 % 0 mm 360.0 W/m2 CLR
14:57 -11.3 °C -21 °C 34669.3 hPa Calm     29 % 0 mm 352.0 W/m2 CLR
15:02 -11.2 °C -20.9 °C 34669.3 hPa Calm     29 % 0 mm 345.0 W/m2 CLR
15:07 -11.2 °C -20.9 °C 34669.3 hPa Calm     29 % 0 mm 334.0 W/m2 CLR
15:12 -11.2 °C -20.7 °C 34669.3 hPa Calm     30 % 0 mm 325.0 W/m2 CLR
15:17 -11.2 °C -20.7 °C 34669.3 hPa Calm     30 % 0 mm 316.0 W/m2 CLR
15:22 -11.2 °C -20.9 °C 34669.3 hPa Calm     29 % 0 mm 308.0 W/m2 CLR
15:27 -11.2 °C -20.2 °C 34669.3 hPa Calm     32 % 0 mm 297.0 W/m2 CLR
15:32 -11.2 °C -20.7 °C 34669.3 hPa Calm     30 % 0 mm 287.0 W/m2 CLR
15:37 -11.2 °C -20.7 °C 34659.1 hPa Calm     30 % 0 mm 276.0 W/m2 CLR
15:42 -11.1 °C -20.3 °C 34659.1 hPa Calm     31 % 0 mm 265.0 W/m2 CLR
15:47 -11.2 °C -20.7 °C 34659.1 hPa Calm     30 % 0 mm 253.0 W/m2 CLR
15:52 -11.2 °C -20.2 °C 34659.1 hPa Calm     32 % 0 mm 237.0 W/m2 CLR
15:57 -11.2 °C -20.4 °C 34659.1 hPa Calm     31 % 0 mm 225.0 W/m2 CLR
16:02 -11.2 °C -20.2 °C 34659.1 hPa Calm     32 % 0 mm 211.0 W/m2 CLR
16:07 -11.2 °C -19.7 °C 34659.1 hPa Calm     34 % 0 mm 197.0 W/m2 CLR
16:12 -11.2 °C -20.2 °C 34669.3 hPa Calm     32 % 0 mm 181.0 W/m2 CLR
16:17 -11.2 °C -19.9 °C 34669.3 hPa Calm     33 % 0 mm 167.0 W/m2 CLR
16:22 -11.2 °C -20.2 °C 34669.3 hPa Calm     32 % 0 mm 153.0 W/m2 CLR
16:28 -11.3 °C -20.2 °C 34669.3 hPa Calm     32 % 0 mm 139.0 W/m2 CLR
16:33 -11.3 °C -19.9 °C 34669.3 hPa Calm     34 % 0 mm 123.0 W/m2 CLR
16:38 -11.3 °C -19.7 °C 34669.3 hPa Calm     35 % 0 mm 109.0 W/m2 CLR
16:43 -11.4 °C -19.7 °C 34682.8 hPa Calm     35 % 0 mm 97.0 W/m2 CLR
16:48 -11.4 °C -19.7 °C 34682.8 hPa Calm     35 % 0 mm 83.0 W/m2 CLR
16:53 -11.4 °C -19.8 °C 34682.8 hPa Calm     35 % 0 mm 65.0 W/m2 CLR
16:58 -11.5 °C -20 °C 34682.8 hPa Calm     34 % 0 mm 54.0 W/m2 CLR
17:03 -11.5 °C -19.8 °C 34682.8 hPa Calm     35 % 0 mm 49.0 W/m2 OVC
17:08 -11.6 °C -19.7 °C 34682.8 hPa Calm     36 % 0 mm 37.0 W/m2 OVC
17:13 -11.8 °C -19.4 °C 34682.8 hPa Calm     38 % 0 mm 26.0 W/m2 OVC
17:18 -11.8 °C -19.5 °C 34682.8 hPa Calm     38 % 0 mm 19.0 W/m2 OVC
17:23 -12 °C -19.6 °C 34693 hPa Calm     38 % 0 mm 14.0 W/m2 OVC
17:28 -12.1 °C -19.6 °C 34693 hPa Calm     39 % 0 mm 12.0 W/m2 OVC
17:33 -12.2 °C -19.6 °C 34693 hPa Calm     39 % 0 mm 11.0 W/m2 OVC
17:38 -12.2 °C -19.6 °C 34693 hPa Calm     39 % 0 mm 9.0 W/m2 OVC
17:43 -12.3 °C -19.5 °C 34693 hPa Calm     40 % 0 mm 5.0 W/m2 OVC
17:48 -12.3 °C -19.6 °C 34693 hPa Calm     40 % 0 mm 0.0 W/m2 CLR
17:53 -12.3 °C -19.3 °C 34703.1 hPa Calm     41 % 0 mm 0.0 W/m2 CLR
17:58 -12.4 °C -19.4 °C 34703.1 hPa Calm     41 % 0 mm 0.0 W/m2 CLR
18:03 -12.5 °C -19.3 °C 34703.1 hPa Calm     42 % 0 mm 0.0 W/m2 CLR
18:08 -12.6 °C -19.4 °C 34703.1 hPa Calm     42 % 0 mm 0.0 W/m2 CLR
18:13 -12.7 °C -19.1 °C 34703.1 hPa Calm     44 % 0 mm 0.0 W/m2 CLR
18:18 -12.8 °C -19.2 °C 34716.7 hPa Calm     44 % 0 mm 0.0 W/m2 CLR
18:23 -12.8 °C -19.1 °C 34716.7 hPa Calm     45 % 0 mm 0.0 W/m2 CLR
18:28 -12.9 °C -19.1 °C 34716.7 hPa Calm     45 % 0 mm 0.0 W/m2 CLR
18:33 -13 °C -18.8 °C 34716.7 hPa Calm     48 % 0 mm 0.0 W/m2 CLR
18:38 -13.3 °C -19.1 °C 34726.8 hPa Calm     48 % 0 mm 0.0 W/m2 CLR
18:43 -13.6 °C -19.1 °C 34726.8 hPa Calm     49 % 0 mm 0.0 W/m2 CLR
18:48 -13.6 °C -19.2 °C 34726.8 hPa Calm     49 % 0 mm 0.0 W/m2 CLR
18:53 -13.5 °C -19.1 °C 34726.8 hPa Calm     49 % 0 mm 0.0 W/m2 CLR
18:58 -13.7 °C -18.9 °C 34726.8 hPa Calm     51 % 0 mm 0.0 W/m2 CLR
19:03 -14.1 °C -18.9 °C 34726.8 hPa Calm     54 % 0 mm 0.0 W/m2 CLR
19:08 -14.4 °C -18.9 °C 34740.4 hPa Calm     56 % 0 mm 0.0 W/m2 CLR
19:13 -14.3 °C -18.9 °C 34740.4 hPa Calm     55 % 0 mm 0.0 W/m2 CLR
19:18 -14.1 °C -18.9 °C 34740.4 hPa Calm     54 % 0 mm 0.0 W/m2 CLR
19:23 -14.1 °C -18.8 °C 34740.4 hPa Calm     55 % 0 mm 0.0 W/m2 CLR
19:28 -14.3 °C -18.8 °C 34750.5 hPa Calm     56 % 0 mm 0.0 W/m2 CLR
19:33 -14.5 °C -18.9 °C 34750.5 hPa Calm     57 % 0 mm 0.0 W/m2 CLR
19:38 -14.6 °C -18.8 °C 34760.7 hPa Calm     58 % 0 mm 0.0 W/m2 CLR
19:43 -14.6 °C -18.8 °C 34750.5 hPa Calm     58 % 0 mm 0.0 W/m2 CLR
19:48 -14.6 °C -18.7 °C 34750.5 hPa Calm     59 % 0 mm 0.0 W/m2 CLR
19:53 -14.3 °C -18.8 °C 34760.7 hPa Calm     56 % 0 mm 0.0 W/m2 CLR
19:58 -14.1 °C -18.7 °C 34760.7 hPa Calm     55 % 0 mm 0.0 W/m2 CLR
20:03 -14.1 °C -18.7 °C 34760.7 hPa Calm     55 % 0 mm 0.0 W/m2 CLR
20:08 -14.2 °C -18.7 °C 34760.7 hPa Calm     56 % 0 mm 0.0 W/m2 CLR
20:13 -14.3 °C -18.7 °C 34760.7 hPa Calm     57 % 0 mm 0.0 W/m2 CLR
20:18 -14.7 °C -18.8 °C 34760.7 hPa Calm     59 % 0 mm 0.0 W/m2 CLR
20:24 -14.9 °C -18.8 °C 34760.7 hPa Calm     61 % 0 mm 0.0 W/m2 CLR
20:29 -15.2 °C -18.8 °C 34760.7 hPa Calm     63 % 0 mm 0.0 W/m2 CLR
20:34 -15.2 °C -18.7 °C 34774.2 hPa Calm     64 % 0 mm 0.0 W/m2 CLR
20:39 -15.2 °C -18.7 °C 34774.2 hPa Calm     64 % 0 mm 0.0 W/m2 CLR
20:44 -15.3 °C -18.7 °C 34774.2 hPa Calm     64 % 0 mm 0.0 W/m2 CLR
20:49 -15.2 °C -18.7 °C 34774.2 hPa Calm     64 % 0 mm 0.0 W/m2 CLR
20:54 -15.1 °C -18.7 °C 34774.2 hPa Calm     63 % 0 mm 0.0 W/m2 CLR
20:59 -14.7 °C -18.7 °C 34774.2 hPa Calm     60 % 0 mm 0.0 W/m2 CLR
21:04 -14.2 °C -18.6 °C 34774.2 hPa Calm     57 % 0 mm 0.0 W/m2 CLR
21:09 -13.9 °C -18.7 °C 34774.2 hPa Calm     54 % 0 mm 0.0 W/m2 CLR
21:14 -13.9 °C -18.7 °C 34774.2 hPa Calm     54 % 0 mm 0.0 W/m2 CLR
21:19 -13.9 °C -18.8 °C 34774.2 hPa Calm     54 % 0 mm 0.0 W/m2 CLR
21:24 -13.9 °C -18.8 °C 34784.4 hPa Calm     53 % 0 mm 0.0 W/m2 CLR
21:29 -13.9 °C -18.7 °C 34774.2 hPa Calm     54 % 0 mm 0.0 W/m2 CLR
21:34 -14.1 °C -18.9 °C 34784.4 hPa Calm     54 % 0 mm 0.0 W/m2 CLR
21:39 -14.3 °C -18.9 °C 34784.4 hPa Calm     55 % 0 mm 0.0 W/m2 CLR
21:44 -14.4 °C -19.1 °C 34784.4 hPa Calm     55 % 0 mm 0.0 W/m2 CLR
21:49 -14.6 °C -18.9 °C 34784.4 hPa Calm     57 % 0 mm 0.0 W/m2 CLR
21:54 -14.8 °C -18.9 °C 34784.4 hPa Calm     59 % 0 mm 0.0 W/m2 CLR
21:59 -15 °C -18.9 °C 34797.9 hPa Calm     60 % 0 mm 0.0 W/m2 CLR
22:04 -15.1 °C -19 °C 34797.9 hPa Calm     60 % 0 mm 0.0 W/m2 CLR
22:09 -15.2 °C -18.8 °C 34797.9 hPa Calm     62 % 0 mm 0.0 W/m2 CLR
22:14 -15.4 °C -18.9 °C 34797.9 hPa Calm     63 % 0 mm 0.0 W/m2 CLR
22:19 -15.2 °C -18.9 °C 34797.9 hPa Calm     62 % 0 mm 0.0 W/m2 CLR
22:24 -15.1 °C -18.8 °C 34808.1 hPa Calm     62 % 0 mm 0.0 W/m2 CLR
22:29 -15.2 °C -18.9 °C 34808.1 hPa Calm     62 % 0 mm 0.0 W/m2 CLR
22:34 -15.4 °C -18.9 °C 34808.1 hPa Calm     63 % 0 mm 0.0 W/m2 CLR
22:39 -15.4 °C -19 °C 34808.1 hPa Calm     63 % 0 mm 0.0 W/m2 CLR
22:44 -15.4 °C -18.9 °C 34808.1 hPa Calm     64 % 0 mm 0.0 W/m2 CLR
22:49 -15.5 °C -18.8 °C 34808.1 hPa Calm     65 % 0 mm 0.0 W/m2 CLR
22:54 -15.6 °C -18.9 °C 34808.1 hPa Calm     65 % 0 mm 0.0 W/m2 CLR
22:59 -15.6 °C -18.8 °C 34808.1 hPa Calm     66 % 0 mm 0.0 W/m2 CLR
23:04 -15.6 °C -18.8 °C 34808.1 hPa Calm     66 % 0 mm 0.0 W/m2 CLR
23:09 -15.5 °C -18.7 °C 34808.1 hPa Calm     66 % 0 mm 0.0 W/m2 CLR
23:14 -15.6 °C -18.8 °C 34818.2 hPa Calm     66 % 0 mm 0.0 W/m2 CLR
23:19 -15.6 °C -18.8 °C 34818.2 hPa Calm     66 % 0 mm 0.0 W/m2 CLR
23:24 -15.7 °C -18.8 °C 34818.2 hPa Calm     67 % 0 mm 0.0 W/m2 CLR
23:29 -15.8 °C -18.9 °C 34818.2 hPa Calm     67 % 0 mm 0.0 W/m2 CLR
23:34 -16.1 °C -18.9 °C 34818.2 hPa Calm     69 % 0 mm 0.0 W/m2 CLR
23:39 -15.9 °C -18.7 °C 34818.2 hPa Calm     69 % 0 mm 0.0 W/m2 CLR
23:44 -15.7 °C -18.7 °C 34818.2 hPa Calm     67 % 0 mm 0.0 W/m2 CLR
23:49 -15.6 °C -18.7 °C 34831.8 hPa Calm     67 % 0 mm 0.0 W/m2 CLR
23:54 -15.8 °C -18.9 °C 34831.8 hPa Calm     67 % 0 mm 0.0 W/m2 CLR
23:59 -16.2 °C -19 °C 34831.8 hPa Calm     69 % 0 mm 0.0 W/m2 CLR
Lo Temps de Massalio
Compliments of Weather Underground - 1.25 mb